sensor_id;sensor_type;location;lat;lon;timestamp;P1;durP1;ratioP1;P2;durP2;ratioP2
10150;SDS011;5116;52.318;4.644;2023-03-01T00:01:02;3.70;;;3.17;;
10150;SDS011;5116;52.318;4.644;2023-03-01T00:03:29;4.27;;;3.20;;
10150;SDS011;5116;52.318;4.644;2023-03-01T00:05:56;4.77;;;3.47;;
10150;SDS011;5116;52.318;4.644;2023-03-01T00:08:24;4.60;;;3.47;;
10150;SDS011;5116;52.318;4.644;2023-03-01T00:13:38;4.40;;;4.00;;
10150;SDS011;5116;52.318;4.644;2023-03-01T00:16:07;7.40;;;4.13;;
10150;SDS011;5116;52.318;4.644;2023-03-01T00:18:35;4.23;;;3.80;;
10150;SDS011;5116;52.318;4.644;2023-03-01T00:21:02;3.67;;;3.30;;
10150;SDS011;5116;52.318;4.644;2023-03-01T00:23:31;4.63;;;3.83;;
10150;SDS011;5116;52.318;4.644;2023-03-01T00:25:59;4.17;;;3.80;;
10150;SDS011;5116;52.318;4.644;2023-03-01T00:28:26;3.87;;;3.57;;
10150;SDS011;5116;52.318;4.644;2023-03-01T00:30:53;5.40;;;4.37;;
10150;SDS011;5116;52.318;4.644;2023-03-01T00:33:21;5.87;;;4.27;;
10150;SDS011;5116;52.318;4.644;2023-03-01T00:35:48;4.20;;;3.77;;
10150;SDS011;5116;52.318;4.644;2023-03-01T00:38:16;3.43;;;3.13;;
10150;SDS011;5116;52.318;4.644;2023-03-01T00:40:44;4.43;;;3.83;;
10150;SDS011;5116;52.318;4.644;2023-03-01T00:43:11;5.87;;;4.27;;
10150;SDS011;5116;52.318;4.644;2023-03-01T00:45:39;6.67;;;4.37;;
10150;SDS011;5116;52.318;4.644;2023-03-01T00:48:06;4.80;;;3.87;;
10150;SDS011;5116;52.318;4.644;2023-03-01T00:50:34;5.57;;;3.77;;
10150;SDS011;5116;52.318;4.644;2023-03-01T00:53:01;4.73;;;3.77;;
10150;SDS011;5116;52.318;4.644;2023-03-01T00:55:29;5.83;;;3.27;;
10150;SDS011;5116;52.318;4.644;2023-03-01T00:57:56;3.70;;;3.40;;
10150;SDS011;5116;52.318;4.644;2023-03-01T01:00:24;5.37;;;3.57;;
10150;SDS011;5116;52.318;4.644;2023-03-01T01:02:54;6.37;;;4.83;;
10150;SDS011;5116;52.318;4.644;2023-03-01T01:05:22;4.83;;;3.97;;
10150;SDS011;5116;52.318;4.644;2023-03-01T01:07:49;5.43;;;4.33;;
10150;SDS011;5116;52.318;4.644;2023-03-01T01:10:17;4.60;;;3.53;;
10150;SDS011;5116;52.318;4.644;2023-03-01T01:12:45;5.30;;;4.33;;
10150;SDS011;5116;52.318;4.644;2023-03-01T01:15:12;5.63;;;4.03;;
10150;SDS011;5116;52.318;4.644;2023-03-01T01:17:42;5.43;;;3.80;;
10150;SDS011;5116;52.318;4.644;2023-03-01T01:20:10;4.00;;;3.50;;
10150;SDS011;5116;52.318;4.644;2023-03-01T01:22:38;5.83;;;3.97;;
10150;SDS011;5116;52.318;4.644;2023-03-01T01:25:06;4.00;;;3.63;;
10150;SDS011;5116;52.318;4.644;2023-03-01T01:27:33;4.27;;;3.73;;
10150;SDS011;5116;52.318;4.644;2023-03-01T01:30:01;3.57;;;3.27;;
10150;SDS011;5116;52.318;4.644;2023-03-01T01:32:28;4.67;;;3.77;;
10150;SDS011;5116;52.318;4.644;2023-03-01T01:34:56;4.63;;;4.23;;
10150;SDS011;5116;52.318;4.644;2023-03-01T01:37:23;5.87;;;3.80;;
10150;SDS011;5116;52.318;4.644;2023-03-01T01:39:58;4.23;;;3.67;;
10150;SDS011;5116;52.318;4.644;2023-03-01T01:42:26;4.17;;;3.23;;
10150;SDS011;5116;52.318;4.644;2023-03-01T01:47:40;4.20;;;3.40;;
10150;SDS011;5116;52.318;4.644;2023-03-01T01:50:08;4.43;;;3.93;;
10150;SDS011;5116;52.318;4.644;2023-03-01T01:52:36;3.87;;;3.47;;
10150;SDS011;5116;52.318;4.644;2023-03-01T01:55:05;4.90;;;3.77;;
10150;SDS011;5116;52.318;4.644;2023-03-01T01:57:39;4.23;;;3.83;;
10150;SDS011;5116;52.318;4.644;2023-03-01T02:00:09;4.13;;;3.57;;
10150;SDS011;5116;52.318;4.644;2023-03-01T02:02:40;4.30;;;3.90;;
10150;SDS011;5116;52.318;4.644;2023-03-01T02:05:11;4.07;;;3.50;;
10150;SDS011;5116;52.318;4.644;2023-03-01T02:07:40;3.93;;;3.53;;
10150;SDS011;5116;52.318;4.644;2023-03-01T02:10:08;3.80;;;3.33;;
10150;SDS011;5116;52.318;4.644;2023-03-01T02:12:37;3.57;;;3.27;;
10150;SDS011;5116;52.318;4.644;2023-03-01T02:15:06;5.47;;;3.80;;
10150;SDS011;5116;52.318;4.644;2023-03-01T02:17:33;5.53;;;4.17;;
10150;SDS011;5116;52.318;4.644;2023-03-01T02:20:09;4.57;;;3.67;;
10150;SDS011;5116;52.318;4.644;2023-03-01T02:22:43;5.30;;;4.60;;
10150;SDS011;5116;52.318;4.644;2023-03-01T02:30:19;4.40;;;3.87;;
10150;SDS011;5116;52.318;4.644;2023-03-01T02:32:47;4.93;;;4.00;;
10150;SDS011;5116;52.318;4.644;2023-03-01T02:35:16;4.97;;;3.70;;
10150;SDS011;5116;52.318;4.644;2023-03-01T02:37:45;4.63;;;3.90;;
10150;SDS011;5116;52.318;4.644;2023-03-01T02:40:13;5.17;;;3.83;;
10150;SDS011;5116;52.318;4.644;2023-03-01T02:42:48;4.63;;;3.70;;
10150;SDS011;5116;52.318;4.644;2023-03-01T02:45:16;5.47;;;4.53;;
10150;SDS011;5116;52.318;4.644;2023-03-01T02:47:44;6.57;;;3.80;;
10150;SDS011;5116;52.318;4.644;2023-03-01T02:50:19;5.87;;;4.40;;
10150;SDS011;5116;52.318;4.644;2023-03-01T02:52:56;4.30;;;3.80;;
10150;SDS011;5116;52.318;4.644;2023-03-01T02:55:25;3.77;;;3.43;;
10150;SDS011;5116;52.318;4.644;2023-03-01T02:57:54;4.70;;;3.70;;
10150;SDS011;5116;52.318;4.644;2023-03-01T03:00:24;4.90;;;3.73;;
10150;SDS011;5116;52.318;4.644;2023-03-01T03:02:54;4.73;;;3.83;;
10150;SDS011;5116;52.318;4.644;2023-03-01T03:05:25;5.07;;;4.07;;
10150;SDS011;5116;52.318;4.644;2023-03-01T03:07:55;6.40;;;3.97;;
10150;SDS011;5116;52.318;4.644;2023-03-01T03:10:28;5.90;;;3.70;;
10150;SDS011;5116;52.318;4.644;2023-03-01T03:13:00;4.93;;;4.30;;
10150;SDS011;5116;52.318;4.644;2023-03-01T03:15:28;5.47;;;4.13;;
10150;SDS011;5116;52.318;4.644;2023-03-01T03:17:56;5.20;;;3.77;;
10150;SDS011;5116;52.318;4.644;2023-03-01T03:20:25;4.90;;;4.03;;
10150;SDS011;5116;52.318;4.644;2023-03-01T03:22:53;5.17;;;4.00;;
10150;SDS011;5116;52.318;4.644;2023-03-01T03:25:21;4.37;;;3.60;;
10150;SDS011;5116;52.318;4.644;2023-03-01T03:27:52;4.67;;;3.83;;
10150;SDS011;5116;52.318;4.644;2023-03-01T03:30:29;4.17;;;3.77;;
10150;SDS011;5116;52.318;4.644;2023-03-01T03:33:02;5.73;;;4.10;;
10150;SDS011;5116;52.318;4.644;2023-03-01T03:35:30;6.97;;;4.07;;
10150;SDS011;5116;52.318;4.644;2023-03-01T03:37:59;5.90;;;4.33;;
10150;SDS011;5116;52.318;4.644;2023-03-01T03:40:34;5.63;;;4.20;;
10150;SDS011;5116;52.318;4.644;2023-03-01T03:43:02;4.17;;;3.77;;
10150;SDS011;5116;52.318;4.644;2023-03-01T03:45:29;6.07;;;4.60;;
10150;SDS011;5116;52.318;4.644;2023-03-01T03:48:00;5.83;;;4.50;;
10150;SDS011;5116;52.318;4.644;2023-03-01T03:50:27;5.33;;;3.63;;
10150;SDS011;5116;52.318;4.644;2023-03-01T03:52:55;4.83;;;4.27;;
10150;SDS011;5116;52.318;4.644;2023-03-01T03:55:23;4.90;;;3.93;;
10150;SDS011;5116;52.318;4.644;2023-03-01T03:57:54;5.87;;;4.40;;
10150;SDS011;5116;52.318;4.644;2023-03-01T04:00:23;6.37;;;4.13;;
10150;SDS011;5116;52.318;4.644;2023-03-01T04:02:51;5.43;;;4.20;;
10150;SDS011;5116;52.318;4.644;2023-03-01T04:05:22;7.80;;;4.40;;
10150;SDS011;5116;52.318;4.644;2023-03-01T04:07:50;6.00;;;4.17;;
10150;SDS011;5116;52.318;4.644;2023-03-01T04:10:31;5.63;;;4.43;;
10150;SDS011;5116;52.318;4.644;2023-03-01T04:12:59;7.67;;;4.57;;
10150;SDS011;5116;52.318;4.644;2023-03-01T04:15:27;5.53;;;4.33;;
10150;SDS011;5116;52.318;4.644;2023-03-01T04:17:55;6.37;;;4.13;;
10150;SDS011;5116;52.318;4.644;2023-03-01T04:20:24;4.87;;;4.30;;
10150;SDS011;5116;52.318;4.644;2023-03-01T04:22:52;6.67;;;4.87;;
10150;SDS011;5116;52.318;4.644;2023-03-01T04:25:19;8.90;;;4.70;;
10150;SDS011;5116;52.318;4.644;2023-03-01T04:27:50;4.60;;;4.20;;
10150;SDS011;5116;52.318;4.644;2023-03-01T04:30:18;4.97;;;4.47;;
10150;SDS011;5116;52.318;4.644;2023-03-01T04:32:45;3.97;;;3.43;;
10150;SDS011;5116;52.318;4.644;2023-03-01T04:35:13;5.20;;;3.87;;
10150;SDS011;5116;52.318;4.644;2023-03-01T04:37:40;8.63;;;5.50;;
10150;SDS011;5116;52.318;4.644;2023-03-01T04:40:08;5.70;;;5.10;;
10150;SDS011;5116;52.318;4.644;2023-03-01T04:42:42;7.83;;;4.73;;
10150;SDS011;5116;52.318;4.644;2023-03-01T04:45:09;6.27;;;5.00;;
10150;SDS011;5116;52.318;4.644;2023-03-01T04:47:40;6.93;;;4.30;;
10150;SDS011;5116;52.318;4.644;2023-03-01T04:50:10;6.57;;;4.60;;
10150;SDS011;5116;52.318;4.644;2023-03-01T04:52:37;6.83;;;4.80;;
10150;SDS011;5116;52.318;4.644;2023-03-01T04:55:05;6.73;;;4.27;;
10150;SDS011;5116;52.318;4.644;2023-03-01T04:57:33;6.67;;;4.63;;
10150;SDS011;5116;52.318;4.644;2023-03-01T05:00:01;5.77;;;4.27;;
10150;SDS011;5116;52.318;4.644;2023-03-01T05:02:47;4.50;;;3.97;;
10150;SDS011;5116;52.318;4.644;2023-03-01T05:05:15;9.17;;;4.90;;
10150;SDS011;5116;52.318;4.644;2023-03-01T05:07:43;6.47;;;3.83;;
10150;SDS011;5116;52.318;4.644;2023-03-01T05:10:10;6.37;;;4.77;;
10150;SDS011;5116;52.318;4.644;2023-03-01T05:12:38;5.57;;;4.10;;
10150;SDS011;5116;52.318;4.644;2023-03-01T05:15:05;6.57;;;4.83;;
10150;SDS011;5116;52.318;4.644;2023-03-01T05:17:33;5.83;;;4.63;;
10150;SDS011;5116;52.318;4.644;2023-03-01T05:20:01;7.57;;;4.97;;
10150;SDS011;5116;52.318;4.644;2023-03-01T05:22:33;8.60;;;5.50;;
10150;SDS011;5116;52.318;4.644;2023-03-01T05:25:00;7.23;;;4.33;;
10150;SDS011;5116;52.318;4.644;2023-03-01T05:27:28;7.37;;;4.77;;
10150;SDS011;5116;52.318;4.644;2023-03-01T05:29:56;8.93;;;5.33;;
10150;SDS011;5116;52.318;4.644;2023-03-01T05:32:23;5.93;;;5.07;;
10150;SDS011;5116;52.318;4.644;2023-03-01T05:34:51;10.00;;;5.70;;
10150;SDS011;5116;52.318;4.644;2023-03-01T05:37:18;9.97;;;6.20;;
10150;SDS011;5116;52.318;4.644;2023-03-01T05:39:46;9.97;;;6.37;;
10150;SDS011;5116;52.318;4.644;2023-03-01T05:42:16;10.80;;;6.10;;
10150;SDS011;5116;52.318;4.644;2023-03-01T05:44:44;7.53;;;4.73;;
10150;SDS011;5116;52.318;4.644;2023-03-01T05:47:11;5.87;;;4.60;;
10150;SDS011;5116;52.318;4.644;2023-03-01T05:49:39;7.57;;;5.40;;
10150;SDS011;5116;52.318;4.644;2023-03-01T05:52:06;6.60;;;4.57;;
10150;SDS011;5116;52.318;4.644;2023-03-01T05:54:34;8.03;;;4.60;;
10150;SDS011;5116;52.318;4.644;2023-03-01T05:57:02;6.77;;;4.83;;
10150;SDS011;5116;52.318;4.644;2023-03-01T05:59:29;6.13;;;4.73;;
10150;SDS011;5116;52.318;4.644;2023-03-01T06:01:56;4.67;;;4.10;;
10150;SDS011;5116;52.318;4.644;2023-03-01T06:04:24;6.60;;;4.33;;
10150;SDS011;5116;52.318;4.644;2023-03-01T06:06:52;7.67;;;5.00;;
10150;SDS011;5116;52.318;4.644;2023-03-01T06:09:19;6.67;;;4.60;;
10150;SDS011;5116;52.318;4.644;2023-03-01T06:11:47;6.47;;;4.87;;
10150;SDS011;5116;52.318;4.644;2023-03-01T06:14:14;7.93;;;4.97;;
10150;SDS011;5116;52.318;4.644;2023-03-01T06:16:42;7.67;;;5.00;;
10150;SDS011;5116;52.318;4.644;2023-03-01T06:19:09;7.00;;;5.00;;
10150;SDS011;5116;52.318;4.644;2023-03-01T06:21:37;6.60;;;5.77;;
10150;SDS011;5116;52.318;4.644;2023-03-01T06:24:04;8.10;;;5.33;;
10150;SDS011;5116;52.318;4.644;2023-03-01T06:26:33;7.53;;;5.00;;
10150;SDS011;5116;52.318;4.644;2023-03-01T06:29:01;7.07;;;4.77;;
10150;SDS011;5116;52.318;4.644;2023-03-01T06:31:28;6.73;;;5.53;;
10150;SDS011;5116;52.318;4.644;2023-03-01T06:33:56;5.50;;;4.27;;
10150;SDS011;5116;52.318;4.644;2023-03-01T06:36:23;9.30;;;5.40;;
10150;SDS011;5116;52.318;4.644;2023-03-01T06:38:51;6.83;;;4.77;;
10150;SDS011;5116;52.318;4.644;2023-03-01T06:41:19;6.73;;;4.17;;
10150;SDS011;5116;52.318;4.644;2023-03-01T06:43:46;8.73;;;5.87;;
10150;SDS011;5116;52.318;4.644;2023-03-01T06:46:14;8.30;;;5.07;;
10150;SDS011;5116;52.318;4.644;2023-03-01T06:48:42;5.90;;;4.43;;
10150;SDS011;5116;52.318;4.644;2023-03-01T06:51:09;8.90;;;4.90;;
10150;SDS011;5116;52.318;4.644;2023-03-01T06:53:37;8.43;;;5.57;;
10150;SDS011;5116;52.318;4.644;2023-03-01T06:56:04;9.43;;;5.00;;
10150;SDS011;5116;52.318;4.644;2023-03-01T06:58:32;8.43;;;4.53;;
10150;SDS011;5116;52.318;4.644;2023-03-01T07:00:59;7.83;;;5.20;;
10150;SDS011;5116;52.318;4.644;2023-03-01T07:03:31;8.37;;;5.63;;
10150;SDS011;5116;52.318;4.644;2023-03-01T07:05:59;6.80;;;5.17;;
10150;SDS011;5116;52.318;4.644;2023-03-01T07:08:27;8.60;;;4.93;;
10150;SDS011;5116;52.318;4.644;2023-03-01T07:10:55;7.10;;;5.50;;
10150;SDS011;5116;52.318;4.644;2023-03-01T07:13:23;6.80;;;5.17;;
10150;SDS011;5116;52.318;4.644;2023-03-01T07:15:53;6.67;;;5.37;;
10150;SDS011;5116;52.318;4.644;2023-03-01T07:18:24;7.27;;;5.50;;
10150;SDS011;5116;52.318;4.644;2023-03-01T07:20:51;5.63;;;5.07;;
10150;SDS011;5116;52.318;4.644;2023-03-01T07:23:19;8.87;;;5.27;;
10150;SDS011;5116;52.318;4.644;2023-03-01T07:25:55;6.30;;;5.37;;
10150;SDS011;5116;52.318;4.644;2023-03-01T07:28:23;6.43;;;4.20;;
10150;SDS011;5116;52.318;4.644;2023-03-01T07:30:51;8.57;;;5.47;;
10150;SDS011;5116;52.318;4.644;2023-03-01T07:33:18;7.03;;;4.80;;
10150;SDS011;5116;52.318;4.644;2023-03-01T07:35:46;7.93;;;4.87;;
10150;SDS011;5116;52.318;4.644;2023-03-01T07:38:14;7.93;;;5.60;;
10150;SDS011;5116;52.318;4.644;2023-03-01T07:40:41;8.17;;;5.33;;
10150;SDS011;5116;52.318;4.644;2023-03-01T07:43:09;6.03;;;4.90;;
10150;SDS011;5116;52.318;4.644;2023-03-01T07:45:36;7.63;;;4.63;;
10150;SDS011;5116;52.318;4.644;2023-03-01T07:48:04;5.03;;;4.23;;
10150;SDS011;5116;52.318;4.644;2023-03-01T07:50:31;6.20;;;4.17;;
10150;SDS011;5116;52.318;4.644;2023-03-01T07:52:59;9.35;;;6.65;;
10150;SDS011;5116;52.318;4.644;2023-03-01T07:55:26;8.37;;;5.60;;
10150;SDS011;5116;52.318;4.644;2023-03-01T07:57:54;6.07;;;4.37;;
10150;SDS011;5116;52.318;4.644;2023-03-01T08:00:21;8.53;;;5.10;;
10150;SDS011;5116;52.318;4.644;2023-03-01T08:02:49;7.10;;;5.17;;
10150;SDS011;5116;52.318;4.644;2023-03-01T08:05:17;7.73;;;5.47;;
10150;SDS011;5116;52.318;4.644;2023-03-01T08:07:44;6.13;;;4.50;;
10150;SDS011;5116;52.318;4.644;2023-03-01T08:10:12;6.20;;;4.60;;
10150;SDS011;5116;52.318;4.644;2023-03-01T08:12:39;5.23;;;4.73;;
10150;SDS011;5116;52.318;4.644;2023-03-01T08:15:12;6.53;;;4.27;;
10150;SDS011;5116;52.318;4.644;2023-03-01T08:17:42;5.87;;;4.30;;
10150;SDS011;5116;52.318;4.644;2023-03-01T08:20:10;7.37;;;5.27;;
10150;SDS011;5116;52.318;4.644;2023-03-01T08:22:39;5.57;;;4.17;;
10150;SDS011;5116;52.318;4.644;2023-03-01T08:25:06;6.07;;;5.33;;
10150;SDS011;5116;52.318;4.644;2023-03-01T08:27:34;5.70;;;4.80;;
10150;SDS011;5116;52.318;4.644;2023-03-01T08:30:02;6.27;;;4.83;;
10150;SDS011;5116;52.318;4.644;2023-03-01T08:32:29;5.10;;;4.37;;
10150;SDS011;5116;52.318;4.644;2023-03-01T08:34:57;5.07;;;3.87;;
10150;SDS011;5116;52.318;4.644;2023-03-01T08:37:24;6.10;;;4.90;;
10150;SDS011;5116;52.318;4.644;2023-03-01T08:39:52;6.97;;;4.33;;
10150;SDS011;5116;52.318;4.644;2023-03-01T08:42:21;11.30;;;4.90;;
10150;SDS011;5116;52.318;4.644;2023-03-01T08:44:48;6.10;;;4.80;;
10150;SDS011;5116;52.318;4.644;2023-03-01T08:47:16;6.50;;;4.87;;
10150;SDS011;5116;52.318;4.644;2023-03-01T08:49:43;7.07;;;4.40;;
10150;SDS011;5116;52.318;4.644;2023-03-01T08:52:11;7.20;;;4.27;;
10150;SDS011;5116;52.318;4.644;2023-03-01T08:54:38;6.17;;;4.87;;
10150;SDS011;5116;52.318;4.644;2023-03-01T08:57:06;8.13;;;5.50;;
10150;SDS011;5116;52.318;4.644;2023-03-01T08:59:33;9.03;;;5.80;;
10150;SDS011;5116;52.318;4.644;2023-03-01T09:02:05;6.37;;;4.63;;
10150;SDS011;5116;52.318;4.644;2023-03-01T09:04:33;6.03;;;5.13;;
10150;SDS011;5116;52.318;4.644;2023-03-01T09:07:00;8.90;;;5.63;;
10150;SDS011;5116;52.318;4.644;2023-03-01T09:09:27;7.93;;;4.93;;
10150;SDS011;5116;52.318;4.644;2023-03-01T09:11:55;6.63;;;4.17;;
10150;SDS011;5116;52.318;4.644;2023-03-01T09:14:28;10.90;;;5.40;;
10150;SDS011;5116;52.318;4.644;2023-03-01T09:16:56;7.10;;;5.17;;
10150;SDS011;5116;52.318;4.644;2023-03-01T09:19:24;4.33;;;3.90;;
10150;SDS011;5116;52.318;4.644;2023-03-01T09:21:52;8.10;;;5.53;;
10150;SDS011;5116;52.318;4.644;2023-03-01T09:24:21;8.10;;;5.80;;
10150;SDS011;5116;52.318;4.644;2023-03-01T09:26:49;7.53;;;5.13;;
10150;SDS011;5116;52.318;4.644;2023-03-01T09:29:17;6.83;;;4.30;;
10150;SDS011;5116;52.318;4.644;2023-03-01T09:31:45;8.67;;;4.57;;
10150;SDS011;5116;52.318;4.644;2023-03-01T09:34:12;6.97;;;4.70;;
10150;SDS011;5116;52.318;4.644;2023-03-01T09:36:42;7.10;;;4.87;;
10150;SDS011;5116;52.318;4.644;2023-03-01T09:39:12;9.80;;;5.23;;
10150;SDS011;5116;52.318;4.644;2023-03-01T09:41:44;8.37;;;5.50;;
10150;SDS011;5116;52.318;4.644;2023-03-01T09:44:16;9.57;;;6.47;;
10150;SDS011;5116;52.318;4.644;2023-03-01T09:46:45;9.83;;;6.73;;
10150;SDS011;5116;52.318;4.644;2023-03-01T09:49:26;6.70;;;5.17;;
10150;SDS011;5116;52.318;4.644;2023-03-01T09:52:19;7.70;;;6.27;;
10150;SDS011;5116;52.318;4.644;2023-03-01T09:54:44;11.20;;;6.57;;
10150;SDS011;5116;52.318;4.644;2023-03-01T09:57:20;6.87;;;5.27;;
10150;SDS011;5116;52.318;4.644;2023-03-01T10:02:35;7.63;;;5.73;;
10150;SDS011;5116;52.318;4.644;2023-03-01T10:05:11;13.17;;;8.67;;
10150;SDS011;5116;52.318;4.644;2023-03-01T10:10:26;9.47;;;6.30;;
10150;SDS011;5116;52.318;4.644;2023-03-01T10:12:54;9.50;;;5.80;;
10150;SDS011;5116;52.318;4.644;2023-03-01T10:15:37;10.53;;;7.33;;
10150;SDS011;5116;52.318;4.644;2023-03-01T10:18:12;13.30;;;8.60;;
10150;SDS011;5116;52.318;4.644;2023-03-01T10:20:42;10.33;;;5.57;;
10150;SDS011;5116;52.318;4.644;2023-03-01T10:23:10;10.70;;;5.97;;
10150;SDS011;5116;52.318;4.644;2023-03-01T10:28:20;11.73;;;7.77;;
10150;SDS011;5116;52.318;4.644;2023-03-01T10:30:52;10.70;;;6.43;;
10150;SDS011;5116;52.318;4.644;2023-03-01T10:33:23;13.93;;;8.80;;
10150;SDS011;5116;52.318;4.644;2023-03-01T10:35:52;14.27;;;7.27;;
10150;SDS011;5116;52.318;4.644;2023-03-01T10:38:20;13.83;;;8.33;;
10150;SDS011;5116;52.318;4.644;2023-03-01T10:43:21;11.43;;;6.43;;
10150;SDS011;5116;52.318;4.644;2023-03-01T10:45:49;12.80;;;6.97;;
10150;SDS011;5116;52.318;4.644;2023-03-01T10:48:17;7.43;;;5.23;;
10150;SDS011;5116;52.318;4.644;2023-03-01T10:50:51;7.87;;;5.93;;
10150;SDS011;5116;52.318;4.644;2023-03-01T10:53:34;8.57;;;5.77;;
10150;SDS011;5116;52.318;4.644;2023-03-01T10:56:04;8.43;;;5.93;;
10150;SDS011;5116;52.318;4.644;2023-03-01T10:59:01;6.57;;;5.53;;
10150;SDS011;5116;52.318;4.644;2023-03-01T11:01:30;8.13;;;6.03;;
10150;SDS011;5116;52.318;4.644;2023-03-01T11:06:33;7.37;;;5.63;;
10150;SDS011;5116;52.318;4.644;2023-03-01T11:11:55;6.53;;;4.37;;
10150;SDS011;5116;52.318;4.644;2023-03-01T11:14:24;5.97;;;4.20;;
10150;SDS011;5116;52.318;4.644;2023-03-01T11:17:00;5.40;;;4.33;;
10150;SDS011;5116;52.318;4.644;2023-03-01T11:19:28;5.50;;;4.33;;
10150;SDS011;5116;52.318;4.644;2023-03-01T11:21:58;7.73;;;5.17;;
10150;SDS011;5116;52.318;4.644;2023-03-01T11:26:57;7.13;;;4.97;;
10150;SDS011;5116;52.318;4.644;2023-03-01T11:29:31;7.80;;;5.33;;
10150;SDS011;5116;52.318;4.644;2023-03-01T11:32:13;6.80;;;4.80;;
10150;SDS011;5116;52.318;4.644;2023-03-01T11:34:53;8.30;;;4.97;;
10150;SDS011;5116;52.318;4.644;2023-03-01T11:40:13;7.80;;;4.43;;
10150;SDS011;5116;52.318;4.644;2023-03-01T11:42:46;8.00;;;4.33;;
10150;SDS011;5116;52.318;4.644;2023-03-01T11:45:15;5.53;;;4.53;;
10150;SDS011;5116;52.318;4.644;2023-03-01T11:50:19;5.67;;;4.33;;
10150;SDS011;5116;52.318;4.644;2023-03-01T11:52:53;6.10;;;4.30;;
10150;SDS011;5116;52.318;4.644;2023-03-01T12:03:25;6.07;;;4.77;;
10150;SDS011;5116;52.318;4.644;2023-03-01T12:08:43;5.30;;;4.80;;
10150;SDS011;5116;52.318;4.644;2023-03-01T12:11:23;8.53;;;6.13;;
10150;SDS011;5116;52.318;4.644;2023-03-01T12:16:52;7.47;;;4.87;;
10150;SDS011;5116;52.318;4.644;2023-03-01T12:22:24;7.70;;;5.47;;
10150;SDS011;5116;52.318;4.644;2023-03-01T12:27:57;5.77;;;5.17;;
10150;SDS011;5116;52.318;4.644;2023-03-01T12:33:15;6.63;;;4.63;;
10150;SDS011;5116;52.318;4.644;2023-03-01T12:35:54;8.20;;;5.23;;
10150;SDS011;5116;52.318;4.644;2023-03-01T12:38:37;5.30;;;4.80;;
10150;SDS011;5116;52.318;4.644;2023-03-01T12:41:24;5.50;;;4.77;;
10150;SDS011;5116;52.318;4.644;2023-03-01T12:44:12;5.70;;;4.87;;
10150;SDS011;5116;52.318;4.644;2023-03-01T12:46:52;6.07;;;5.47;;
10150;SDS011;5116;52.318;4.644;2023-03-01T12:49:28;8.27;;;4.70;;
10150;SDS011;5116;52.318;4.644;2023-03-01T12:52:00;5.53;;;4.97;;
10150;SDS011;5116;52.318;4.644;2023-03-01T12:54:30;5.47;;;4.93;;
10150;SDS011;5116;52.318;4.644;2023-03-01T12:57:02;6.57;;;5.20;;
10150;SDS011;5116;52.318;4.644;2023-03-01T13:02:23;10.10;;;4.63;;
10150;SDS011;5116;52.318;4.644;2023-03-01T13:08:27;7.70;;;5.30;;
10150;SDS011;5116;52.318;4.644;2023-03-01T13:10:48;7.90;;;5.27;;
10150;SDS011;5116;52.318;4.644;2023-03-01T13:13:20;5.67;;;4.67;;
10150;SDS011;5116;52.318;4.644;2023-03-01T13:15:49;6.30;;;5.17;;
10150;SDS011;5116;52.318;4.644;2023-03-01T13:20:52;5.97;;;5.07;;
10150;SDS011;5116;52.318;4.644;2023-03-01T13:31:04;4.70;;;4.23;;
10150;SDS011;5116;52.318;4.644;2023-03-01T13:33:33;5.00;;;4.37;;
10150;SDS011;5116;52.318;4.644;2023-03-01T13:36:02;5.70;;;4.10;;
10150;SDS011;5116;52.318;4.644;2023-03-01T13:38:38;6.40;;;4.57;;
10150;SDS011;5116;52.318;4.644;2023-03-01T13:41:07;7.30;;;5.13;;
10150;SDS011;5116;52.318;4.644;2023-03-01T13:43:38;6.87;;;5.07;;
10150;SDS011;5116;52.318;4.644;2023-03-01T13:46:15;6.30;;;4.43;;
10150;SDS011;5116;52.318;4.644;2023-03-01T13:48:45;5.97;;;3.90;;
10150;SDS011;5116;52.318;4.644;2023-03-01T13:51:12;8.33;;;4.50;;
10150;SDS011;5116;52.318;4.644;2023-03-01T13:53:41;4.30;;;3.90;;
10150;SDS011;5116;52.318;4.644;2023-03-01T13:56:14;4.70;;;4.07;;
10150;SDS011;5116;52.318;4.644;2023-03-01T13:58:44;4.77;;;4.00;;
10150;SDS011;5116;52.318;4.644;2023-03-01T14:01:20;4.87;;;3.80;;
10150;SDS011;5116;52.318;4.644;2023-03-01T14:03:48;5.67;;;4.23;;
10150;SDS011;5116;52.318;4.644;2023-03-01T14:06:22;8.00;;;4.60;;
10150;SDS011;5116;52.318;4.644;2023-03-01T14:08:51;4.40;;;4.00;;
10150;SDS011;5116;52.318;4.644;2023-03-01T14:19:14;5.70;;;3.87;;
10150;SDS011;5116;52.318;4.644;2023-03-01T14:24:46;7.30;;;4.77;;
10150;SDS011;5116;52.318;4.644;2023-03-01T14:27:15;5.63;;;4.80;;
10150;SDS011;5116;52.318;4.644;2023-03-01T14:29:54;5.00;;;3.37;;
10150;SDS011;5116;52.318;4.644;2023-03-01T14:32:23;7.10;;;4.80;;
10150;SDS011;5116;52.318;4.644;2023-03-01T14:34:51;5.77;;;4.30;;
10150;SDS011;5116;52.318;4.644;2023-03-01T14:37:20;4.83;;;4.33;;
10150;SDS011;5116;52.318;4.644;2023-03-01T14:39:48;4.30;;;3.90;;
10150;SDS011;5116;52.318;4.644;2023-03-01T14:42:16;5.27;;;4.03;;
10150;SDS011;5116;52.318;4.644;2023-03-01T14:44:48;5.47;;;4.27;;
10150;SDS011;5116;52.318;4.644;2023-03-01T14:47:27;5.23;;;4.17;;
10150;SDS011;5116;52.318;4.644;2023-03-01T14:50:02;5.83;;;4.50;;
10150;SDS011;5116;52.318;4.644;2023-03-01T14:52:35;5.73;;;3.67;;
10150;SDS011;5116;52.318;4.644;2023-03-01T14:55:04;5.30;;;4.47;;
10150;SDS011;5116;52.318;4.644;2023-03-01T14:57:32;5.37;;;4.83;;
10150;SDS011;5116;52.318;4.644;2023-03-01T15:00:00;5.57;;;3.93;;
10150;SDS011;5116;52.318;4.644;2023-03-01T15:02:32;4.73;;;4.03;;
10150;SDS011;5116;52.318;4.644;2023-03-01T15:05:03;5.00;;;4.13;;
10150;SDS011;5116;52.318;4.644;2023-03-01T15:07:35;6.77;;;4.37;;
10150;SDS011;5116;52.318;4.644;2023-03-01T15:10:04;5.50;;;4.00;;
10150;SDS011;5116;52.318;4.644;2023-03-01T15:14:59;4.63;;;4.17;;
10150;SDS011;5116;52.318;4.644;2023-03-01T15:19:57;5.20;;;4.50;;
10150;SDS011;5116;52.318;4.644;2023-03-01T15:22:30;3.60;;;3.30;;
10150;SDS011;5116;52.318;4.644;2023-03-01T15:24:57;5.37;;;4.00;;
10150;SDS011;5116;52.318;4.644;2023-03-01T15:27:25;9.07;;;3.60;;
10150;SDS011;5116;52.318;4.644;2023-03-01T15:29:59;5.47;;;3.77;;
10150;SDS011;5116;52.318;4.644;2023-03-01T15:32:33;6.87;;;4.60;;
10150;SDS011;5116;52.318;4.644;2023-03-01T15:37:48;4.13;;;3.70;;
10150;SDS011;5116;52.318;4.644;2023-03-01T15:40:20;7.37;;;4.50;;
10150;SDS011;5116;52.318;4.644;2023-03-01T15:43:01;4.57;;;3.63;;
10150;SDS011;5116;52.318;4.644;2023-03-01T15:45:30;5.37;;;3.63;;
10150;SDS011;5116;52.318;4.644;2023-03-01T15:48:14;5.90;;;3.13;;
10150;SDS011;5116;52.318;4.644;2023-03-01T15:50:53;4.87;;;3.80;;
10150;SDS011;5116;52.318;4.644;2023-03-01T15:53:23;3.37;;;2.97;;
10150;SDS011;5116;52.318;4.644;2023-03-01T15:55:51;3.37;;;3.07;;
10150;SDS011;5116;52.318;4.644;2023-03-01T15:58:27;5.10;;;3.87;;
10150;SDS011;5116;52.318;4.644;2023-03-01T16:00:56;3.77;;;3.07;;
10150;SDS011;5116;52.318;4.644;2023-03-01T16:03:28;3.60;;;3.30;;
10150;SDS011;5116;52.318;4.644;2023-03-01T16:05:55;4.93;;;3.30;;
10150;SDS011;5116;52.318;4.644;2023-03-01T16:08:25;6.73;;;3.23;;
10150;SDS011;5116;52.318;4.644;2023-03-01T16:10:52;4.90;;;3.27;;
10150;SDS011;5116;52.318;4.644;2023-03-01T16:13:21;4.13;;;3.40;;
10150;SDS011;5116;52.318;4.644;2023-03-01T16:15:49;5.13;;;3.67;;
10150;SDS011;5116;52.318;4.644;2023-03-01T16:18:18;3.80;;;3.27;;
10150;SDS011;5116;52.318;4.644;2023-03-01T16:20:46;4.90;;;3.40;;
10150;SDS011;5116;52.318;4.644;2023-03-01T16:23:14;4.47;;;3.33;;
10150;SDS011;5116;52.318;4.644;2023-03-01T16:25:42;4.33;;;3.90;;
10150;SDS011;5116;52.318;4.644;2023-03-01T16:28:09;4.73;;;3.27;;
10150;SDS011;5116;52.318;4.644;2023-03-01T16:30:38;4.37;;;3.50;;
10150;SDS011;5116;52.318;4.644;2023-03-01T16:33:06;4.23;;;3.13;;
10150;SDS011;5116;52.318;4.644;2023-03-01T16:35:54;4.80;;;3.07;;
10150;SDS011;5116;52.318;4.644;2023-03-01T16:38:21;5.77;;;3.57;;
10150;SDS011;5116;52.318;4.644;2023-03-01T16:40:50;4.30;;;3.17;;
10150;SDS011;5116;52.318;4.644;2023-03-01T16:43:18;4.17;;;3.20;;
10150;SDS011;5116;52.318;4.644;2023-03-01T16:45:45;5.27;;;3.37;;
10150;SDS011;5116;52.318;4.644;2023-03-01T16:48:13;3.73;;;3.13;;